sensor_id;sensor_type;location;lat;lon;timestamp;P1;durP1;ratioP1;P2;durP2;ratioP2
9413;SDS011;4746;35.664;139.738;2023-02-14T00:01:20;1.90;;;1.50;;
9413;SDS011;4746;35.664;139.738;2023-02-14T00:03:48;1.50;;;1.40;;
9413;SDS011;4746;35.664;139.738;2023-02-14T00:06:15;1.70;;;1.60;;
9413;SDS011;4746;35.664;139.738;2023-02-14T00:08:43;1.63;;;1.20;;
9413;SDS011;4746;35.664;139.738;2023-02-14T00:11:11;1.60;;;1.43;;
9413;SDS011;4746;35.664;139.738;2023-02-14T00:13:39;1.50;;;1.40;;
9413;SDS011;4746;35.664;139.738;2023-02-14T00:16:26;1.40;;;1.37;;
9413;SDS011;4746;35.664;139.738;2023-02-14T00:18:54;2.27;;;1.67;;
9413;SDS011;4746;35.664;139.738;2023-02-14T00:21:28;1.87;;;1.67;;
9413;SDS011;4746;35.664;139.738;2023-02-14T00:24:02;3.17;;;1.93;;
9413;SDS011;4746;35.664;139.738;2023-02-14T00:26:39;2.03;;;1.40;;
9413;SDS011;4746;35.664;139.738;2023-02-14T00:29:09;1.30;;;1.30;;
9413;SDS011;4746;35.664;139.738;2023-02-14T00:31:40;2.73;;;1.53;;
9413;SDS011;4746;35.664;139.738;2023-02-14T00:34:09;1.57;;;1.47;;
9413;SDS011;4746;35.664;139.738;2023-02-14T00:36:39;1.87;;;1.77;;
9413;SDS011;4746;35.664;139.738;2023-02-14T00:39:08;1.53;;;1.50;;
9413;SDS011;4746;35.664;139.738;2023-02-14T00:41:38;3.60;;;1.77;;
9413;SDS011;4746;35.664;139.738;2023-02-14T00:44:08;1.30;;;1.30;;
9413;SDS011;4746;35.664;139.738;2023-02-14T00:46:38;1.40;;;1.30;;
9413;SDS011;4746;35.664;139.738;2023-02-14T00:49:06;1.73;;;1.60;;
9413;SDS011;4746;35.664;139.738;2023-02-14T00:51:34;1.50;;;1.40;;
9413;SDS011;4746;35.664;139.738;2023-02-14T00:54:01;1.57;;;1.47;;
9413;SDS011;4746;35.664;139.738;2023-02-14T00:56:29;1.50;;;1.40;;
9413;SDS011;4746;35.664;139.738;2023-02-14T00:58:57;3.57;;;1.53;;
9413;SDS011;4746;35.664;139.738;2023-02-14T01:01:25;1.70;;;1.60;;
9413;SDS011;4746;35.664;139.738;2023-02-14T01:03:53;1.33;;;1.27;;
9413;SDS011;4746;35.664;139.738;2023-02-14T01:06:20;1.73;;;1.60;;
9413;SDS011;4746;35.664;139.738;2023-02-14T01:08:48;3.57;;;1.73;;
9413;SDS011;4746;35.664;139.738;2023-02-14T01:11:16;1.40;;;1.20;;
9413;SDS011;4746;35.664;139.738;2023-02-14T01:13:47;1.80;;;1.70;;
9413;SDS011;4746;35.664;139.738;2023-02-14T01:16:17;1.57;;;1.47;;
9413;SDS011;4746;35.664;139.738;2023-02-14T01:18:49;1.17;;;1.10;;
9413;SDS011;4746;35.664;139.738;2023-02-14T01:23:57;1.40;;;1.30;;
9413;SDS011;4746;35.664;139.738;2023-02-14T01:26:29;1.67;;;1.40;;
9413;SDS011;4746;35.664;139.738;2023-02-14T01:28:57;2.50;;;1.20;;
9413;SDS011;4746;35.664;139.738;2023-02-14T01:31:26;1.00;;;1.00;;
9413;SDS011;4746;35.664;139.738;2023-02-14T01:33:56;1.20;;;1.10;;
9413;SDS011;4746;35.664;139.738;2023-02-14T01:39:03;1.27;;;1.23;;
9413;SDS011;4746;35.664;139.738;2023-02-14T01:41:43;1.40;;;1.30;;
9413;SDS011;4746;35.664;139.738;2023-02-14T01:46:42;1.20;;;1.20;;
9413;SDS011;4746;35.664;139.738;2023-02-14T01:49:24;1.60;;;1.50;;
9413;SDS011;4746;35.664;139.738;2023-02-14T01:52:04;1.10;;;1.10;;
9413;SDS011;4746;35.664;139.738;2023-02-14T01:54:44;2.03;;;1.40;;
9413;SDS011;4746;35.664;139.738;2023-02-14T01:57:41;1.40;;;1.30;;
9413;SDS011;4746;35.664;139.738;2023-02-14T02:00:24;1.50;;;1.40;;
9413;SDS011;4746;35.664;139.738;2023-02-14T02:03:11;1.70;;;1.60;;
9413;SDS011;4746;35.664;139.738;2023-02-14T02:05:44;1.37;;;1.20;;
9413;SDS011;4746;35.664;139.738;2023-02-14T02:08:18;1.13;;;1.13;;
9413;SDS011;4746;35.664;139.738;2023-02-14T02:10:46;1.30;;;1.17;;
9413;SDS011;4746;35.664;139.738;2023-02-14T02:13:15;1.70;;;1.50;;
9413;SDS011;4746;35.664;139.738;2023-02-14T02:37:34;2.17;;;1.73;;
9413;SDS011;4746;35.664;139.738;2023-02-14T02:42:48;2.80;;;2.10;;
9413;SDS011;4746;35.664;139.738;2023-02-14T02:45:57;1.83;;;1.73;;
9413;SDS011;4746;35.664;139.738;2023-02-14T02:49:20;2.73;;;1.90;;
9413;SDS011;4746;35.664;139.738;2023-02-14T02:56:04;1.70;;;1.60;;
9413;SDS011;4746;35.664;139.738;2023-02-14T02:58:56;1.63;;;1.53;;
9413;SDS011;4746;35.664;139.738;2023-02-14T03:01:58;1.70;;;1.60;;
9413;SDS011;4746;35.664;139.738;2023-02-14T03:04:49;1.37;;;1.27;;
9413;SDS011;4746;35.664;139.738;2023-02-14T03:07:33;1.60;;;1.50;;
9413;SDS011;4746;35.664;139.738;2023-02-14T03:10:11;2.00;;;1.77;;
9413;SDS011;4746;35.664;139.738;2023-02-14T03:21:35;1.47;;;1.37;;
9413;SDS011;4746;35.664;139.738;2023-02-14T03:24:49;1.30;;;1.30;;
9413;SDS011;4746;35.664;139.738;2023-02-14T03:27:24;2.97;;;1.63;;
9413;SDS011;4746;35.664;139.738;2023-02-14T03:30:13;1.70;;;1.60;;
9413;SDS011;4746;35.664;139.738;2023-02-14T03:33:24;2.13;;;1.93;;
9413;SDS011;4746;35.664;139.738;2023-02-14T03:36:14;1.67;;;1.60;;
9413;SDS011;4746;35.664;139.738;2023-02-14T03:38:51;1.53;;;1.40;;
9413;SDS011;4746;35.664;139.738;2023-02-14T03:41:28;2.20;;;1.30;;
9413;SDS011;4746;35.664;139.738;2023-02-14T03:44:08;1.50;;;1.40;;
9413;SDS011;4746;35.664;139.738;2023-02-14T03:46:46;1.60;;;1.50;;
9413;SDS011;4746;35.664;139.738;2023-02-14T03:49:25;1.27;;;1.20;;
9413;SDS011;4746;35.664;139.738;2023-02-14T03:51:58;1.53;;;1.13;;
9413;SDS011;4746;35.664;139.738;2023-02-14T03:54:29;1.23;;;1.13;;
9413;SDS011;4746;35.664;139.738;2023-02-14T04:00:02;1.20;;;1.20;;
9413;SDS011;4746;35.664;139.738;2023-02-14T04:02:38;1.50;;;1.40;;
9413;SDS011;4746;35.664;139.738;2023-02-14T04:05:23;1.43;;;1.37;;
9413;SDS011;4746;35.664;139.738;2023-02-14T04:07:54;1.60;;;1.50;;
9413;SDS011;4746;35.664;139.738;2023-02-14T04:10:24;1.40;;;1.30;;
9413;SDS011;4746;35.664;139.738;2023-02-14T04:12:52;2.00;;;1.80;;
9413;SDS011;4746;35.664;139.738;2023-02-14T04:15:21;1.57;;;1.47;;
9413;SDS011;4746;35.664;139.738;2023-02-14T04:17:49;1.50;;;1.40;;
9413;SDS011;4746;35.664;139.738;2023-02-14T04:20:34;1.63;;;1.53;;
9413;SDS011;4746;35.664;139.738;2023-02-14T04:23:02;1.50;;;1.40;;
9413;SDS011;4746;35.664;139.738;2023-02-14T04:25:29;1.17;;;1.00;;
9413;SDS011;4746;35.664;139.738;2023-02-14T04:27:57;1.47;;;1.37;;
9413;SDS011;4746;35.664;139.738;2023-02-14T04:30:24;0.97;;;0.97;;
9413;SDS011;4746;35.664;139.738;2023-02-14T04:32:52;1.37;;;1.00;;
9413;SDS011;4746;35.664;139.738;2023-02-14T04:35:19;1.00;;;1.00;;
9413;SDS011;4746;35.664;139.738;2023-02-14T04:37:47;1.23;;;1.10;;
9413;SDS011;4746;35.664;139.738;2023-02-14T04:40:15;0.80;;;0.80;;
9413;SDS011;4746;35.664;139.738;2023-02-14T04:42:45;0.90;;;0.90;;
9413;SDS011;4746;35.664;139.738;2023-02-14T04:45:13;1.20;;;1.10;;
9413;SDS011;4746;35.664;139.738;2023-02-14T04:47:41;1.00;;;1.00;;
9413;SDS011;4746;35.664;139.738;2023-02-14T04:50:08;0.80;;;0.80;;
9413;SDS011;4746;35.664;139.738;2023-02-14T04:52:37;0.70;;;0.70;;
9413;SDS011;4746;35.664;139.738;2023-02-14T04:55:05;1.00;;;0.70;;
9413;SDS011;4746;35.664;139.738;2023-02-14T04:57:34;0.73;;;0.73;;
9413;SDS011;4746;35.664;139.738;2023-02-14T05:00:03;1.40;;;0.80;;
9413;SDS011;4746;35.664;139.738;2023-02-14T05:02:32;0.93;;;0.70;;
9413;SDS011;4746;35.664;139.738;2023-02-14T05:05:00;0.83;;;0.83;;
9413;SDS011;4746;35.664;139.738;2023-02-14T05:07:27;0.53;;;0.53;;
9413;SDS011;4746;35.664;139.738;2023-02-14T05:09:55;1.03;;;0.50;;
9413;SDS011;4746;35.664;139.738;2023-02-14T05:12:23;0.50;;;0.50;;
9413;SDS011;4746;35.664;139.738;2023-02-14T05:14:50;1.27;;;0.70;;
9413;SDS011;4746;35.664;139.738;2023-02-14T05:17:18;0.80;;;0.80;;
9413;SDS011;4746;35.664;139.738;2023-02-14T05:19:45;0.70;;;0.70;;
9413;SDS011;4746;35.664;139.738;2023-02-14T05:22:13;0.80;;;0.80;;
9413;SDS011;4746;35.664;139.738;2023-02-14T05:24:41;1.17;;;0.87;;
9413;SDS011;4746;35.664;139.738;2023-02-14T05:27:08;3.70;;;0.83;;
9413;SDS011;4746;35.664;139.738;2023-02-14T05:29:36;0.87;;;0.80;;
9413;SDS011;4746;35.664;139.738;2023-02-14T05:32:04;0.70;;;0.70;;
9413;SDS011;4746;35.664;139.738;2023-02-14T05:34:31;0.50;;;0.50;;
9413;SDS011;4746;35.664;139.738;2023-02-14T05:36:59;1.07;;;0.53;;
9413;SDS011;4746;35.664;139.738;2023-02-14T05:39:27;1.27;;;0.77;;
9413;SDS011;4746;35.664;139.738;2023-02-14T05:41:55;1.20;;;0.77;;
9413;SDS011;4746;35.664;139.738;2023-02-14T05:44:22;0.73;;;0.60;;
9413;SDS011;4746;35.664;139.738;2023-02-14T05:46:50;0.43;;;0.43;;
9413;SDS011;4746;35.664;139.738;2023-02-14T05:49:19;0.70;;;0.70;;
9413;SDS011;4746;35.664;139.738;2023-02-14T05:51:47;2.27;;;0.43;;
9413;SDS011;4746;35.664;139.738;2023-02-14T05:54:15;0.77;;;0.77;;
9413;SDS011;4746;35.664;139.738;2023-02-14T05:56:42;1.13;;;0.90;;
9413;SDS011;4746;35.664;139.738;2023-02-14T05:59:10;1.20;;;0.60;;
9413;SDS011;4746;35.664;139.738;2023-02-14T06:01:38;1.07;;;0.60;;
9413;SDS011;4746;35.664;139.738;2023-02-14T06:04:06;1.20;;;0.67;;
9413;SDS011;4746;35.664;139.738;2023-02-14T06:06:34;1.60;;;0.63;;
9413;SDS011;4746;35.664;139.738;2023-02-14T06:09:01;2.83;;;0.70;;
9413;SDS011;4746;35.664;139.738;2023-02-14T06:11:29;0.97;;;0.60;;
9413;SDS011;4746;35.664;139.738;2023-02-14T06:14:03;1.67;;;0.70;;
9413;SDS011;4746;35.664;139.738;2023-02-14T06:16:30;1.87;;;0.70;;
9413;SDS011;4746;35.664;139.738;2023-02-14T06:19:04;0.73;;;0.60;;
9413;SDS011;4746;35.664;139.738;2023-02-14T06:21:40;3.40;;;0.60;;
9413;SDS011;4746;35.664;139.738;2023-02-14T06:24:08;1.70;;;0.80;;
9413;SDS011;4746;35.664;139.738;2023-02-14T06:26:54;0.80;;;0.53;;
9413;SDS011;4746;35.664;139.738;2023-02-14T06:29:21;0.60;;;0.60;;
9413;SDS011;4746;35.664;139.738;2023-02-14T06:31:48;1.60;;;0.90;;
9413;SDS011;4746;35.664;139.738;2023-02-14T06:34:16;1.33;;;0.67;;
9413;SDS011;4746;35.664;139.738;2023-02-14T06:36:44;2.23;;;0.80;;
9413;SDS011;4746;35.664;139.738;2023-02-14T06:39:11;1.17;;;0.70;;
9413;SDS011;4746;35.664;139.738;2023-02-14T06:41:38;0.80;;;0.80;;
9413;SDS011;4746;35.664;139.738;2023-02-14T06:44:06;0.80;;;0.80;;
9413;SDS011;4746;35.664;139.738;2023-02-14T06:46:34;0.83;;;0.83;;
9413;SDS011;4746;35.664;139.738;2023-02-14T06:49:02;1.17;;;1.07;;
9413;SDS011;4746;35.664;139.738;2023-02-14T06:51:29;0.80;;;0.80;;
9413;SDS011;4746;35.664;139.738;2023-02-14T06:53:57;0.83;;;0.83;;
9413;SDS011;4746;35.664;139.738;2023-02-14T06:56:24;1.57;;;0.83;;
9413;SDS011;4746;35.664;139.738;2023-02-14T06:58:53;1.27;;;0.80;;
9413;SDS011;4746;35.664;139.738;2023-02-14T07:01:21;2.53;;;0.83;;
9413;SDS011;4746;35.664;139.738;2023-02-14T07:03:52;0.90;;;0.90;;
9413;SDS011;4746;35.664;139.738;2023-02-14T07:06:20;1.30;;;1.20;;
9413;SDS011;4746;35.664;139.738;2023-02-14T07:08:48;0.90;;;0.90;;
9413;SDS011;4746;35.664;139.738;2023-02-14T07:11:15;1.07;;;0.93;;
9413;SDS011;4746;35.664;139.738;2023-02-14T07:13:43;1.20;;;1.10;;
9413;SDS011;4746;35.664;139.738;2023-02-14T07:16:11;1.10;;;1.10;;
9413;SDS011;4746;35.664;139.738;2023-02-14T07:18:44;1.50;;;1.40;;
9413;SDS011;4746;35.664;139.738;2023-02-14T07:21:19;2.73;;;1.37;;
9413;SDS011;4746;35.664;139.738;2023-02-14T07:23:46;1.93;;;1.40;;
9413;SDS011;4746;35.664;139.738;2023-02-14T07:26:17;1.57;;;1.47;;
9413;SDS011;4746;35.664;139.738;2023-02-14T07:28:52;1.80;;;1.70;;
9413;SDS011;4746;35.664;139.738;2023-02-14T07:31:19;1.33;;;1.17;;
9413;SDS011;4746;35.664;139.738;2023-02-14T07:33:48;1.90;;;1.80;;
9413;SDS011;4746;35.664;139.738;2023-02-14T07:36:17;1.63;;;1.53;;
9413;SDS011;4746;35.664;139.738;2023-02-14T07:38:45;1.63;;;1.40;;
9413;SDS011;4746;35.664;139.738;2023-02-14T07:41:12;2.77;;;1.87;;
9413;SDS011;4746;35.664;139.738;2023-02-14T07:43:40;1.73;;;1.53;;
9413;SDS011;4746;35.664;139.738;2023-02-14T07:46:08;1.57;;;1.47;;
9413;SDS011;4746;35.664;139.738;2023-02-14T07:48:35;2.53;;;2.00;;
9413;SDS011;4746;35.664;139.738;2023-02-14T07:51:03;1.73;;;1.60;;
9413;SDS011;4746;35.664;139.738;2023-02-14T07:53:31;2.27;;;1.87;;
9413;SDS011;4746;35.664;139.738;2023-02-14T07:56:12;3.23;;;2.03;;
9413;SDS011;4746;35.664;139.738;2023-02-14T07:58:40;2.17;;;2.07;;
9413;SDS011;4746;35.664;139.738;2023-02-14T08:01:08;2.20;;;2.10;;
9413;SDS011;4746;35.664;139.738;2023-02-14T08:03:35;2.20;;;2.10;;
9413;SDS011;4746;35.664;139.738;2023-02-14T08:06:03;2.23;;;1.77;;
9413;SDS011;4746;35.664;139.738;2023-02-14T08:08:30;2.57;;;2.07;;
9413;SDS011;4746;35.664;139.738;2023-02-14T08:10:58;2.17;;;2.00;;
9413;SDS011;4746;35.664;139.738;2023-02-14T08:13:26;2.40;;;2.20;;
9413;SDS011;4746;35.664;139.738;2023-02-14T08:15:54;2.80;;;2.47;;
9413;SDS011;4746;35.664;139.738;2023-02-14T08:18:33;2.70;;;2.50;;
9413;SDS011;4746;35.664;139.738;2023-02-14T08:21:06;2.57;;;2.30;;
9413;SDS011;4746;35.664;139.738;2023-02-14T08:23:36;2.73;;;2.53;;
9413;SDS011;4746;35.664;139.738;2023-02-14T08:26:04;2.33;;;2.13;;
9413;SDS011;4746;35.664;139.738;2023-02-14T08:28:32;2.27;;;2.17;;
9413;SDS011;4746;35.664;139.738;2023-02-14T08:31:01;2.70;;;2.50;;
9413;SDS011;4746;35.664;139.738;2023-02-14T08:33:30;2.33;;;2.13;;
9413;SDS011;4746;35.664;139.738;2023-02-14T08:36:22;2.50;;;2.30;;
9413;SDS011;4746;35.664;139.738;2023-02-14T08:38:55;3.60;;;3.23;;
9413;SDS011;4746;35.664;139.738;2023-02-14T08:41:27;2.70;;;2.50;;
9413;SDS011;4746;35.664;139.738;2023-02-14T08:43:59;2.67;;;2.43;;
9413;SDS011;4746;35.664;139.738;2023-02-14T08:46:37;2.90;;;2.70;;
9413;SDS011;4746;35.664;139.738;2023-02-14T08:49:06;3.83;;;2.77;;
9413;SDS011;4746;35.664;139.738;2023-02-14T08:52:14;2.67;;;2.50;;
9413;SDS011;4746;35.664;139.738;2023-02-14T08:54:57;2.93;;;2.53;;
9413;SDS011;4746;35.664;139.738;2023-02-14T08:57:29;4.23;;;2.90;;
9413;SDS011;4746;35.664;139.738;2023-02-14T09:00:05;3.47;;;2.60;;
9413;SDS011;4746;35.664;139.738;2023-02-14T09:02:37;2.90;;;2.70;;
9413;SDS011;4746;35.664;139.738;2023-02-14T09:05:36;2.33;;;2.20;;
9413;SDS011;4746;35.664;139.738;2023-02-14T09:08:07;2.67;;;2.47;;
9413;SDS011;4746;35.664;139.738;2023-02-14T09:10:55;2.30;;;2.10;;
9413;SDS011;4746;35.664;139.738;2023-02-14T09:13:51;2.37;;;2.17;;
9413;SDS011;4746;35.664;139.738;2023-02-14T09:16:21;2.73;;;2.40;;
9413;SDS011;4746;35.664;139.738;2023-02-14T09:18:53;2.80;;;2.60;;
9413;SDS011;4746;35.664;139.738;2023-02-14T09:21:37;3.20;;;2.90;;
9413;SDS011;4746;35.664;139.738;2023-02-14T09:24:30;3.33;;;2.70;;
9413;SDS011;4746;35.664;139.738;2023-02-14T09:27:05;2.97;;;2.77;;
9413;SDS011;4746;35.664;139.738;2023-02-14T09:29:49;2.83;;;2.57;;
9413;SDS011;4746;35.664;139.738;2023-02-14T09:32:21;3.37;;;3.07;;
9413;SDS011;4746;35.664;139.738;2023-02-14T09:34:53;3.13;;;2.83;;
9413;SDS011;4746;35.664;139.738;2023-02-14T09:37:21;5.17;;;2.87;;
9413;SDS011;4746;35.664;139.738;2023-02-14T09:39:56;3.10;;;2.80;;
9413;SDS011;4746;35.664;139.738;2023-02-14T09:45:25;2.90;;;2.70;;
9413;SDS011;4746;35.664;139.738;2023-02-14T09:48:02;3.30;;;2.60;;
9413;SDS011;4746;35.664;139.738;2023-02-14T09:51:10;2.60;;;2.37;;
9413;SDS011;4746;35.664;139.738;2023-02-14T09:54:05;2.43;;;2.33;;
9413;SDS011;4746;35.664;139.738;2023-02-14T10:02:29;2.63;;;2.43;;
9413;SDS011;4746;35.664;139.738;2023-02-14T10:05:25;2.37;;;2.23;;
9413;SDS011;4746;35.664;139.738;2023-02-14T10:11:04;2.37;;;2.17;;
9413;SDS011;4746;35.664;139.738;2023-02-14T10:16:42;2.50;;;2.30;;
9413;SDS011;4746;35.664;139.738;2023-02-14T10:19:19;2.90;;;2.70;;
9413;SDS011;4746;35.664;139.738;2023-02-14T10:22:16;2.30;;;2.10;;
9413;SDS011;4746;35.664;139.738;2023-02-14T10:27:40;2.60;;;2.40;;
9413;SDS011;4746;35.664;139.738;2023-02-14T10:30:13;4.13;;;2.70;;
9413;SDS011;4746;35.664;139.738;2023-02-14T10:32:45;2.73;;;2.53;;
9413;SDS011;4746;35.664;139.738;2023-02-14T10:41:50;2.43;;;2.23;;
9413;SDS011;4746;35.664;139.738;2023-02-14T10:45:02;2.30;;;2.13;;
9413;SDS011;4746;35.664;139.738;2023-02-14T10:50:55;2.90;;;2.70;;
9413;SDS011;4746;35.664;139.738;2023-02-14T10:56:39;2.93;;;2.73;;
9413;SDS011;4746;35.664;139.738;2023-02-14T11:03:15;3.23;;;2.67;;
9413;SDS011;4746;35.664;139.738;2023-02-14T11:05:44;2.50;;;2.30;;
9413;SDS011;4746;35.664;139.738;2023-02-14T11:11:20;3.30;;;3.00;;
9413;SDS011;4746;35.664;139.738;2023-02-14T11:14:27;3.07;;;2.87;;
9413;SDS011;4746;35.664;139.738;2023-02-14T11:16:58;2.90;;;2.70;;
9413;SDS011;4746;35.664;139.738;2023-02-14T11:20:29;2.90;;;2.70;;
9413;SDS011;4746;35.664;139.738;2023-02-14T11:22:49;3.60;;;2.40;;
9413;SDS011;4746;35.664;139.738;2023-02-14T11:25:30;2.73;;;2.53;;
9413;SDS011;4746;35.664;139.738;2023-02-14T11:28:02;3.30;;;3.00;;
9413;SDS011;4746;35.664;139.738;2023-02-14T11:30:42;3.03;;;2.83;;
9413;SDS011;4746;35.664;139.738;2023-02-14T11:36:15;3.10;;;2.90;;
9413;SDS011;4746;35.664;139.738;2023-02-14T11:38:44;2.60;;;2.40;;
9413;SDS011;4746;35.664;139.738;2023-02-14T11:42:03;2.70;;;2.50;;
9413;SDS011;4746;35.664;139.738;2023-02-14T11:44:32;3.10;;;2.90;;
9413;SDS011;4746;35.664;139.738;2023-02-14T11:47:44;2.60;;;2.40;;
9413;SDS011;4746;35.664;139.738;2023-02-14T11:50:16;3.07;;;2.50;;
9413;SDS011;4746;35.664;139.738;2023-02-14T11:52:59;3.00;;;2.57;;
9413;SDS011;4746;35.664;139.738;2023-02-14T11:55:37;2.70;;;2.50;;
9413;SDS011;4746;35.664;139.738;2023-02-14T11:58:10;2.50;;;2.30;;
9413;SDS011;4746;35.664;139.738;2023-02-14T12:01:03;2.77;;;2.57;;
9413;SDS011;4746;35.664;139.738;2023-02-14T12:03:36;2.30;;;2.20;;
9413;SDS011;4746;35.664;139.738;2023-02-14T12:06:27;2.27;;;2.03;;
9413;SDS011;4746;35.664;139.738;2023-02-14T12:14:32;2.00;;;1.90;;
9413;SDS011;4746;35.664;139.738;2023-02-14T12:17:08;2.47;;;2.30;;
9413;SDS011;4746;35.664;139.738;2023-02-14T12:20:15;2.27;;;2.17;;
9413;SDS011;4746;35.664;139.738;2023-02-14T12:32:04;2.50;;;2.30;;
9413;SDS011;4746;35.664;139.738;2023-02-14T12:34:48;2.53;;;2.27;;
9413;SDS011;4746;35.664;139.738;2023-02-14T12:37:36;2.33;;;2.13;;
9413;SDS011;4746;35.664;139.738;2023-02-14T12:40:27;2.70;;;2.50;;
9413;SDS011;4746;35.664;139.738;2023-02-14T12:43:37;2.53;;;2.33;;
9413;SDS011;4746;35.664;139.738;2023-02-14T12:52:43;2.40;;;2.20;;
9413;SDS011;4746;35.664;139.738;2023-02-14T12:55:51;2.50;;;2.30;;
9413;SDS011;4746;35.664;139.738;2023-02-14T12:58:48;2.10;;;2.00;;
9413;SDS011;4746;35.664;139.738;2023-02-14T13:07:54;1.67;;;1.57;;
9413;SDS011;4746;35.664;139.738;2023-02-14T13:11:03;2.10;;;1.93;;
9413;SDS011;4746;35.664;139.738;2023-02-14T13:14:07;1.97;;;1.87;;
9413;SDS011;4746;35.664;139.738;2023-02-14T13:16:56;2.03;;;1.93;;
9413;SDS011;4746;35.664;139.738;2023-02-14T13:22:33;2.47;;;2.17;;
9413;SDS011;4746;35.664;139.738;2023-02-14T13:25:12;1.83;;;1.70;;
9413;SDS011;4746;35.664;139.738;2023-02-14T13:27:59;2.47;;;2.10;;
9413;SDS011;4746;35.664;139.738;2023-02-14T13:30:37;2.00;;;1.90;;
9413;SDS011;4746;35.664;139.738;2023-02-14T13:35:54;2.87;;;2.67;;
9413;SDS011;4746;35.664;139.738;2023-02-14T13:38:26;2.27;;;2.10;;
9413;SDS011;4746;35.664;139.738;2023-02-14T13:40:57;2.57;;;2.37;;
9413;SDS011;4746;35.664;139.738;2023-02-14T13:43:51;2.03;;;1.93;;
9413;SDS011;4746;35.664;139.738;2023-02-14T13:49:02;2.33;;;2.13;;
9413;SDS011;4746;35.664;139.738;2023-02-14T13:54:19;1.90;;;1.80;;
9413;SDS011;4746;35.664;139.738;2023-02-14T14:02:52;1.67;;;1.57;;
9413;SDS011;4746;35.664;139.738;2023-02-14T14:10:49;1.97;;;1.87;;
9413;SDS011;4746;35.664;139.738;2023-02-14T14:24:57;2.13;;;1.93;;
9413;SDS011;4746;35.664;139.738;2023-02-14T14:27:34;2.30;;;2.10;;
9413;SDS011;4746;35.664;139.738;2023-02-14T14:30:26;3.13;;;2.03;;
9413;SDS011;4746;35.664;139.738;2023-02-14T14:33:13;2.10;;;2.00;;
9413;SDS011;4746;35.664;139.738;2023-02-14T14:36:07;2.10;;;2.00;;
9413;SDS011;4746;35.664;139.738;2023-02-14T14:38:48;1.77;;;1.57;;
9413;SDS011;4746;35.664;139.738;2023-02-14T14:41:19;2.10;;;2.00;;
9413;SDS011;4746;35.664;139.738;2023-02-14T14:43:57;2.10;;;2.00;;
9413;SDS011;4746;35.664;139.738;2023-02-14T14:46:25;2.00;;;1.90;;
9413;SDS011;4746;35.664;139.738;2023-02-14T14:48:54;2.00;;;1.90;;
9413;SDS011;4746;35.664;139.738;2023-02-14T14:51:24;2.00;;;1.57;;
9413;SDS011;4746;35.664;139.738;2023-02-14T14:53:59;2.13;;;2.03;;
9413;SDS011;4746;35.664;139.738;2023-02-14T14:56:59;1.93;;;1.80;;
9413;SDS011;4746;35.664;139.738;2023-02-14T15:02:05;1.97;;;1.87;;
9413;SDS011;4746;35.664;139.738;2023-02-14T15:04:56;2.93;;;1.70;;
9413;SDS011;4746;35.664;139.738;2023-02-14T15:07:42;2.00;;;1.90;;
9413;SDS011;4746;35.664;139.738;2023-02-14T15:10:20;2.00;;;1.90;;
9413;SDS011;4746;35.664;139.738;2023-02-14T15:12:51;1.90;;;1.80;;
9413;SDS011;4746;35.664;139.738;2023-02-14T15:15:46;1.90;;;1.80;;
9413;SDS011;4746;35.664;139.738;2023-02-14T15:18:16;2.70;;;1.90;;
9413;SDS011;4746;35.664;139.738;2023-02-14T15:20:49;1.93;;;1.83;;
9413;SDS011;4746;35.664;139.738;2023-02-14T15:23:18;2.37;;;1.60;;
9413;SDS011;4746;35.664;139.738;2023-02-14T15:25:50;1.97;;;1.87;;
9413;SDS011;4746;35.664;139.738;2023-02-14T15:31:04;1.77;;;1.67;;
9413;SDS011;4746;35.664;139.738;2023-02-14T15:33:32;1.97;;;1.87;;
9413;SDS011;4746;35.664;139.738;2023-02-14T15:36:05;2.13;;;2.03;;
9413;SDS011;4746;35.664;139.738;2023-02-14T15:38:43;1.30;;;1.30;;
9413;SDS011;4746;35.664;139.738;2023-02-14T15:41:12;1.97;;;1.87;;
9413;SDS011;4746;35.664;139.738;2023-02-14T15:43:41;1.80;;;1.70;;
9413;SDS011;4746;35.664;139.738;2023-02-14T15:48:59;1.97;;;1.87;;
9413;SDS011;4746;35.664;139.738;2023-02-14T15:51:35;2.47;;;2.27;;
9413;SDS011;4746;35.664;139.738;2023-02-14T15:54:07;1.70;;;1.60;;
9413;SDS011;4746;35.664;139.738;2023-02-14T15:57:20;1.90;;;1.80;;
9413;SDS011;4746;35.664;139.738;2023-02-14T15:59:52;2.50;;;2.30;;
9413;SDS011;4746;35.664;139.738;2023-02-14T16:02:32;2.10;;;2.00;;
9413;SDS011;4746;35.664;139.738;2023-02-14T16:05:17;2.17;;;2.00;;
9413;SDS011;4746;35.664;139.738;2023-02-14T16:08:05;1.80;;;1.70;;
9413;SDS011;4746;35.664;139.738;2023-02-14T16:11:03;1.83;;;1.73;;
9413;SDS011;4746;35.664;139.738;2023-02-14T16:17:30;1.90;;;1.73;;
9413;SDS011;4746;35.664;139.738;2023-02-14T16:20:06;2.53;;;2.33;;
9413;SDS011;4746;35.664;139.738;2023-02-14T16:22:52;2.40;;;2.20;;
9413;SDS011;4746;35.664;139.738;2023-02-14T16:25:45;2.30;;;2.10;;
9413;SDS011;4746;35.664;139.738;2023-02-14T16:28:14;2.43;;;2.30;;
9413;SDS011;4746;35.664;139.738;2023-02-14T16:30:43;2.33;;;2.13;;
9413;SDS011;4746;35.664;139.738;2023-02-14T16:33:19;2.30;;;2.10;;
9413;SDS011;4746;35.664;139.738;2023-02-14T16:35:56;2.63;;;2.53;;
9413;SDS011;4746;35.664;139.738;2023-02-14T16:38:41;1.97;;;1.87;;
9413;SDS011;4746;35.664;139.738;2023-02-14T16:41:18;2.47;;;2.27;;
9413;SDS011;4746;35.664;139.738;2023-02-14T16:43:49;2.17;;;2.00;;
9413;SDS011;4746;35.664;139.738;2023-02-14T16:46:18;2.40;;;2.30;;
9413;SDS011;4746;35.664;139.738;2023-02-14T16:48:50;2.50;;;2.30;;
9413;SDS011;4746;35.664;139.738;2023-02-14T16:51:19;2.30;;;2.10;;
9413;SDS011;4746;35.664;139.738;2023-02-14T16:53:52;2.17;;;1.97;;
9413;SDS011;4746;35.664;139.738;2023-02-14T16:57:06;2.30;;;2.10;;
9413;SDS011;4746;35.664;139.738;2023-02-14T16:59:20;2.10;;;1.90;;
9413;SDS011;4746;35.664;139.738;2023-02-14T17:01:47;1.90;;;1.80;;
9413;SDS011;4746;35.664;139.738;2023-02-14T17:04:15;2.20;;;1.90;;
9413;SDS011;4746;35.664;139.738;2023-02-14T17:06:48;1.80;;;1.70;;
9413;SDS011;4746;35.664;139.738;2023-02-14T17:09:27;1.87;;;1.77;;
9413;SDS011;4746;35.664;139.738;2023-02-14T17:12:02;2.40;;;2.20;;
9413;SDS011;4746;35.664;139.738;2023-02-14T17:14:39;1.97;;;1.87;;
9413;SDS011;4746;35.664;139.738;2023-02-14T17:17:12;2.47;;;2.20;;
9413;SDS011;4746;35.664;139.738;2023-02-14T17:19:41;2.53;;;2.30;;
9413;SDS011;4746;35.664;139.738;2023-02-14T17:22:09;1.90;;;1.80;;
9413;SDS011;4746;35.664;139.738;2023-02-14T17:24:39;2.10;;;2.00;;
9413;SDS011;4746;35.664;139.738;2023-02-14T17:27:06;2.20;;;2.10;;
9413;SDS011;4746;35.664;139.738;2023-02-14T17:29:35;2.20;;;2.00;;
9413;SDS011;4746;35.664;139.738;2023-02-14T17:32:03;2.23;;;2.03;;
9413;SDS011;4746;35.664;139.738;2023-02-14T17:34:31;2.40;;;2.20;;
9413;SDS011;4746;35.664;139.738;2023-02-14T17:36:59;2.13;;;1.93;;
9413;SDS011;4746;35.664;139.738;2023-02-14T17:39:27;2.07;;;1.97;;
9413;SDS011;4746;35.664;139.738;2023-02-14T17:41:55;1.73;;;1.63;;
9413;SDS011;4746;35.664;139.738;2023-02-14T17:44:22;2.97;;;2.50;;
9413;SDS011;4746;35.664;139.738;2023-02-14T17:46:50;2.43;;;2.33;;
9413;SDS011;4746;35.664;139.738;2023-02-14T17:49:19;2.73;;;2.10;;
9413;SDS011;4746;35.664;139.738;2023-02-14T17:51:46;2.00;;;1.90;;
9413;SDS011;4746;35.664;139.738;2023-02-14T17:54:14;1.87;;;1.77;;
9413;SDS011;4746;35.664;139.738;2023-02-14T17:56:41;2.03;;;1.93;;
9413;SDS011;4746;35.664;139.738;2023-02-14T17:59:09;1.90;;;1.80;;
9413;SDS011;4746;35.664;139.738;2023-02-14T18:01:36;2.00;;;1.90;;
9413;SDS011;4746;35.664;139.738;2023-02-14T18:04:04;2.00;;;1.83;;
9413;SDS011;4746;35.664;139.738;2023-02-14T18:06:32;2.17;;;2.07;;
9413;SDS011;4746;35.664;139.738;2023-02-14T18:09:03;2.17;;;1.90;;
9413;SDS011;4746;35.664;139.738;2023-02-14T18:11:31;2.43;;;2.33;;
9413;SDS011;4746;35.664;139.738;2023-02-14T18:13:59;2.40;;;2.30;;
9413;SDS011;4746;35.664;139.738;2023-02-14T18:16:28;1.97;;;1.87;;
9413;SDS011;4746;35.664;139.738;2023-02-14T18:18:56;2.00;;;1.87;;